sensor_id;sensor_type;location;lat;lon;timestamp;P1;durP1;ratioP1;P2;durP2;ratioP2
75548;SDS011;64133;56.002;37.208;2023-09-12T00:01:30;18.37;;;7.53;;
75548;SDS011;64133;56.002;37.208;2023-09-12T00:06:35;14.40;;;7.55;;
75548;SDS011;64133;56.002;37.208;2023-09-12T00:11:39;19.37;;;8.15;;
75548;SDS011;64133;56.002;37.208;2023-09-12T00:16:44;15.58;;;6.83;;
75548;SDS011;64133;56.002;37.208;2023-09-12T00:21:49;14.95;;;7.60;;
75548;SDS011;64133;56.002;37.208;2023-09-12T00:26:53;19.70;;;7.45;;
75548;SDS011;64133;56.002;37.208;2023-09-12T00:31:58;17.80;;;7.97;;
75548;SDS011;64133;56.002;37.208;2023-09-12T00:37:03;20.02;;;8.15;;
75548;SDS011;64133;56.002;37.208;2023-09-12T00:42:07;15.68;;;7.80;;
75548;SDS011;64133;56.002;37.208;2023-09-12T00:47:12;17.45;;;8.43;;
75548;SDS011;64133;56.002;37.208;2023-09-12T00:52:17;22.07;;;8.53;;
75548;SDS011;64133;56.002;37.208;2023-09-12T00:57:21;19.95;;;7.65;;
75548;SDS011;64133;56.002;37.208;2023-09-12T01:02:26;19.35;;;7.72;;
75548;SDS011;64133;56.002;37.208;2023-09-12T01:07:31;17.90;;;8.05;;
75548;SDS011;64133;56.002;37.208;2023-09-12T01:12:35;20.27;;;8.23;;
75548;SDS011;64133;56.002;37.208;2023-09-12T01:17:40;19.98;;;8.03;;
75548;SDS011;64133;56.002;37.208;2023-09-12T01:23:03;16.48;;;7.20;;
75548;SDS011;64133;56.002;37.208;2023-09-12T01:28:13;23.55;;;9.60;;
75548;SDS011;64133;56.002;37.208;2023-09-12T01:33:17;19.82;;;9.20;;
75548;SDS011;64133;56.002;37.208;2023-09-12T01:38:22;20.37;;;9.60;;
75548;SDS011;64133;56.002;37.208;2023-09-12T01:43:26;21.40;;;9.20;;
75548;SDS011;64133;56.002;37.208;2023-09-12T01:48:32;17.65;;;9.43;;
75548;SDS011;64133;56.002;37.208;2023-09-12T01:53:36;16.45;;;8.88;;
75548;SDS011;64133;56.002;37.208;2023-09-12T01:58:41;19.52;;;8.23;;
75548;SDS011;64133;56.002;37.208;2023-09-12T02:03:45;22.42;;;9.73;;
75548;SDS011;64133;56.002;37.208;2023-09-12T02:08:50;21.00;;;8.78;;
75548;SDS011;64133;56.002;37.208;2023-09-12T02:13:55;21.57;;;8.83;;
75548;SDS011;64133;56.002;37.208;2023-09-12T02:18:59;18.50;;;9.93;;
75548;SDS011;64133;56.002;37.208;2023-09-12T02:24:04;20.12;;;8.10;;
75548;SDS011;64133;56.002;37.208;2023-09-12T02:29:09;19.40;;;9.10;;
75548;SDS011;64133;56.002;37.208;2023-09-12T02:34:14;20.62;;;9.00;;
75548;SDS011;64133;56.002;37.208;2023-09-12T02:39:19;22.22;;;8.58;;
75548;SDS011;64133;56.002;37.208;2023-09-12T02:44:23;21.82;;;8.40;;
75548;SDS011;64133;56.002;37.208;2023-09-12T02:49:28;21.35;;;8.00;;
75548;SDS011;64133;56.002;37.208;2023-09-12T02:54:32;18.50;;;8.18;;
75548;SDS011;64133;56.002;37.208;2023-09-12T02:59:37;16.20;;;7.92;;
75548;SDS011;64133;56.002;37.208;2023-09-12T03:04:42;19.92;;;8.60;;
75548;SDS011;64133;56.002;37.208;2023-09-12T03:09:48;16.17;;;7.72;;
75548;SDS011;64133;56.002;37.208;2023-09-12T03:14:53;23.52;;;9.13;;
75548;SDS011;64133;56.002;37.208;2023-09-12T03:19:57;17.92;;;7.75;;
75548;SDS011;64133;56.002;37.208;2023-09-12T03:25:02;15.58;;;8.48;;
75548;SDS011;64133;56.002;37.208;2023-09-12T03:30:08;20.05;;;8.40;;
75548;SDS011;64133;56.002;37.208;2023-09-12T03:35:14;21.02;;;8.30;;
75548;SDS011;64133;56.002;37.208;2023-09-12T03:40:18;17.90;;;7.70;;
75548;SDS011;64133;56.002;37.208;2023-09-12T03:45:23;15.95;;;8.40;;
75548;SDS011;64133;56.002;37.208;2023-09-12T03:50:28;18.07;;;8.30;;
75548;SDS011;64133;56.002;37.208;2023-09-12T03:55:32;23.95;;;8.35;;
75548;SDS011;64133;56.002;37.208;2023-09-12T04:00:37;16.20;;;7.87;;
75548;SDS011;64133;56.002;37.208;2023-09-12T04:05:42;26.65;;;9.98;;
75548;SDS011;64133;56.002;37.208;2023-09-12T04:10:46;20.20;;;7.95;;
75548;SDS011;64133;56.002;37.208;2023-09-12T04:15:51;17.12;;;8.38;;
75548;SDS011;64133;56.002;37.208;2023-09-12T04:20:56;17.73;;;8.48;;
75548;SDS011;64133;56.002;37.208;2023-09-12T04:26:00;18.15;;;8.28;;
75548;SDS011;64133;56.002;37.208;2023-09-12T04:31:06;21.80;;;9.78;;
75548;SDS011;64133;56.002;37.208;2023-09-12T04:36:10;21.90;;;9.63;;
75548;SDS011;64133;56.002;37.208;2023-09-12T04:41:15;19.90;;;10.55;;
75548;SDS011;64133;56.002;37.208;2023-09-12T04:46:20;21.17;;;9.53;;
75548;SDS011;64133;56.002;37.208;2023-09-12T04:51:24;24.25;;;10.98;;
75548;SDS011;64133;56.002;37.208;2023-09-12T04:56:29;21.57;;;10.10;;
75548;SDS011;64133;56.002;37.208;2023-09-12T05:01:34;20.43;;;10.20;;
75548;SDS011;64133;56.002;37.208;2023-09-12T05:06:38;21.73;;;9.10;;
75548;SDS011;64133;56.002;37.208;2023-09-12T05:11:43;21.97;;;9.70;;
75548;SDS011;64133;56.002;37.208;2023-09-12T05:16:48;24.57;;;11.22;;
75548;SDS011;64133;56.002;37.208;2023-09-12T05:21:52;19.70;;;10.03;;
75548;SDS011;64133;56.002;37.208;2023-09-12T05:26:57;20.55;;;9.50;;
75548;SDS011;64133;56.002;37.208;2023-09-12T05:32:02;20.25;;;9.78;;
75548;SDS011;64133;56.002;37.208;2023-09-12T05:37:07;18.65;;;9.13;;
75548;SDS011;64133;56.002;37.208;2023-09-12T05:42:12;28.60;;;8.85;;
75548;SDS011;64133;56.002;37.208;2023-09-12T05:47:17;19.50;;;9.13;;
75548;SDS011;64133;56.002;37.208;2023-09-12T05:52:21;20.77;;;9.25;;
75548;SDS011;64133;56.002;37.208;2023-09-12T05:57:26;19.92;;;9.75;;
75548;SDS011;64133;56.002;37.208;2023-09-12T06:02:30;22.07;;;10.23;;
75548;SDS011;64133;56.002;37.208;2023-09-12T06:07:35;20.57;;;9.25;;
75548;SDS011;64133;56.002;37.208;2023-09-12T06:12:42;21.60;;;10.53;;
75548;SDS011;64133;56.002;37.208;2023-09-12T06:17:46;20.02;;;9.58;;
75548;SDS011;64133;56.002;37.208;2023-09-12T06:22:51;20.88;;;10.13;;
75548;SDS011;64133;56.002;37.208;2023-09-12T06:27:56;18.57;;;9.40;;
75548;SDS011;64133;56.002;37.208;2023-09-12T06:33:00;15.00;;;7.45;;
75548;SDS011;64133;56.002;37.208;2023-09-12T06:38:05;23.22;;;9.70;;
75548;SDS011;64133;56.002;37.208;2023-09-12T06:43:10;22.67;;;9.83;;
75548;SDS011;64133;56.002;37.208;2023-09-12T06:48:15;16.87;;;8.05;;
75548;SDS011;64133;56.002;37.208;2023-09-12T06:53:19;16.70;;;7.97;;
75548;SDS011;64133;56.002;37.208;2023-09-12T06:58:24;18.90;;;8.50;;
75548;SDS011;64133;56.002;37.208;2023-09-12T07:03:28;21.27;;;9.20;;
75548;SDS011;64133;56.002;37.208;2023-09-12T07:08:33;20.02;;;9.50;;
75548;SDS011;64133;56.002;37.208;2023-09-12T07:13:38;20.77;;;7.87;;
75548;SDS011;64133;56.002;37.208;2023-09-12T07:18:42;15.78;;;7.85;;
75548;SDS011;64133;56.002;37.208;2023-09-12T07:23:48;18.80;;;7.72;;
75548;SDS011;64133;56.002;37.208;2023-09-12T07:28:53;17.35;;;7.85;;
75548;SDS011;64133;56.002;37.208;2023-09-12T07:33:57;17.55;;;8.95;;
75548;SDS011;64133;56.002;37.208;2023-09-12T07:39:02;18.20;;;9.43;;
75548;SDS011;64133;56.002;37.208;2023-09-12T07:44:07;20.15;;;9.05;;
75548;SDS011;64133;56.002;37.208;2023-09-12T07:49:13;21.62;;;9.25;;
75548;SDS011;64133;56.002;37.208;2023-09-12T07:54:17;16.90;;;8.35;;
75548;SDS011;64133;56.002;37.208;2023-09-12T07:59:22;23.32;;;8.75;;
75548;SDS011;64133;56.002;37.208;2023-09-12T08:04:27;18.23;;;9.50;;
75548;SDS011;64133;56.002;37.208;2023-09-12T08:09:48;15.50;;;6.80;;
75548;SDS011;64133;56.002;37.208;2023-09-12T08:14:52;16.73;;;7.87;;
75548;SDS011;64133;56.002;37.208;2023-09-12T08:19:57;18.07;;;8.33;;
75548;SDS011;64133;56.002;37.208;2023-09-12T08:25:02;16.05;;;7.92;;
75548;SDS011;64133;56.002;37.208;2023-09-12T08:30:12;14.60;;;7.45;;
75548;SDS011;64133;56.002;37.208;2023-09-12T08:35:16;15.65;;;7.05;;
75548;SDS011;64133;56.002;37.208;2023-09-12T08:40:24;14.23;;;7.05;;
75548;SDS011;64133;56.002;37.208;2023-09-12T08:45:29;18.25;;;7.72;;
75548;SDS011;64133;56.002;37.208;2023-09-12T08:50:33;15.90;;;6.97;;
75548;SDS011;64133;56.002;37.208;2023-09-12T08:55:38;14.07;;;7.35;;
75548;SDS011;64133;56.002;37.208;2023-09-12T09:00:43;12.58;;;6.85;;
75548;SDS011;64133;56.002;37.208;2023-09-12T09:05:47;12.23;;;6.83;;
75548;SDS011;64133;56.002;37.208;2023-09-12T09:10:56;12.18;;;6.70;;
75548;SDS011;64133;56.002;37.208;2023-09-12T09:16:10;12.75;;;6.87;;
75548;SDS011;64133;56.002;37.208;2023-09-12T09:21:17;15.58;;;7.35;;
75548;SDS011;64133;56.002;37.208;2023-09-12T09:26:22;16.07;;;7.78;;
75548;SDS011;64133;56.002;37.208;2023-09-12T09:31:27;11.70;;;5.67;;
75548;SDS011;64133;56.002;37.208;2023-09-12T09:36:32;13.58;;;7.65;;
75548;SDS011;64133;56.002;37.208;2023-09-12T09:41:37;18.35;;;6.75;;
75548;SDS011;64133;56.002;37.208;2023-09-12T09:46:43;11.85;;;6.10;;
75548;SDS011;64133;56.002;37.208;2023-09-12T09:51:47;13.00;;;6.58;;
75548;SDS011;64133;56.002;37.208;2023-09-12T09:56:53;14.47;;;7.40;;
75548;SDS011;64133;56.002;37.208;2023-09-12T10:01:57;11.70;;;6.87;;
75548;SDS011;64133;56.002;37.208;2023-09-12T10:07:01;16.42;;;7.97;;
75548;SDS011;64133;56.002;37.208;2023-09-12T10:12:06;13.40;;;6.42;;
75548;SDS011;64133;56.002;37.208;2023-09-12T10:17:11;13.95;;;6.45;;
75548;SDS011;64133;56.002;37.208;2023-09-12T10:22:17;11.88;;;6.10;;
75548;SDS011;64133;56.002;37.208;2023-09-12T10:27:21;18.57;;;6.05;;
75548;SDS011;64133;56.002;37.208;2023-09-12T10:32:25;17.45;;;6.60;;
75548;SDS011;64133;56.002;37.208;2023-09-12T10:37:30;8.68;;;5.00;;
75548;SDS011;64133;56.002;37.208;2023-09-12T10:42:35;11.75;;;5.53;;
75548;SDS011;64133;56.002;37.208;2023-09-12T10:47:40;12.98;;;6.92;;
75548;SDS011;64133;56.002;37.208;2023-09-12T10:52:45;14.53;;;5.85;;
75548;SDS011;64133;56.002;37.208;2023-09-12T10:58:05;11.80;;;5.08;;
75548;SDS011;64133;56.002;37.208;2023-09-12T11:08:42;12.80;;;5.72;;
75548;SDS011;64133;56.002;37.208;2023-09-12T11:13:46;13.88;;;5.47;;
75548;SDS011;64133;56.002;37.208;2023-09-12T11:24:17;8.95;;;4.85;;
75548;SDS011;64133;56.002;37.208;2023-09-12T11:29:22;8.48;;;4.62;;
75548;SDS011;64133;56.002;37.208;2023-09-12T11:34:35;9.53;;;4.45;;
75548;SDS011;64133;56.002;37.208;2023-09-12T11:39:35;8.50;;;4.42;;
75548;SDS011;64133;56.002;37.208;2023-09-12T11:44:40;10.23;;;4.25;;
75548;SDS011;64133;56.002;37.208;2023-09-12T11:49:44;8.23;;;4.03;;
75548;SDS011;64133;56.002;37.208;2023-09-12T11:54:49;6.85;;;4.10;;
75548;SDS011;64133;56.002;37.208;2023-09-12T11:59:54;10.03;;;5.20;;
75548;SDS011;64133;56.002;37.208;2023-09-12T12:04:58;10.85;;;4.78;;
75548;SDS011;64133;56.002;37.208;2023-09-12T12:10:03;10.10;;;5.10;;
75548;SDS011;64133;56.002;37.208;2023-09-12T12:15:10;15.20;;;5.40;;
75548;SDS011;64133;56.002;37.208;2023-09-12T12:20:15;10.53;;;4.97;;
75548;SDS011;64133;56.002;37.208;2023-09-12T12:25:19;11.65;;;5.15;;
75548;SDS011;64133;56.002;37.208;2023-09-12T12:30:24;11.25;;;5.15;;
75548;SDS011;64133;56.002;37.208;2023-09-12T12:40:43;9.20;;;5.37;;
75548;SDS011;64133;56.002;37.208;2023-09-12T12:45:55;7.47;;;4.53;;
75548;SDS011;64133;56.002;37.208;2023-09-12T12:50:59;8.80;;;5.45;;
75548;SDS011;64133;56.002;37.208;2023-09-12T12:56:04;13.88;;;6.03;;
75548;SDS011;64133;56.002;37.208;2023-09-12T13:01:09;10.00;;;5.08;;
75548;SDS011;64133;56.002;37.208;2023-09-12T13:06:13;11.80;;;6.40;;
75548;SDS011;64133;56.002;37.208;2023-09-12T13:11:18;12.07;;;6.05;;
75548;SDS011;64133;56.002;37.208;2023-09-12T13:16:23;9.85;;;4.42;;
75548;SDS011;64133;56.002;37.208;2023-09-12T13:21:28;10.60;;;4.72;;
75548;SDS011;64133;56.002;37.208;2023-09-12T13:26:32;9.15;;;4.33;;
75548;SDS011;64133;56.002;37.208;2023-09-12T13:31:37;6.75;;;4.15;;
75548;SDS011;64133;56.002;37.208;2023-09-12T13:36:42;10.40;;;5.20;;
75548;SDS011;64133;56.002;37.208;2023-09-12T13:41:46;8.38;;;4.35;;
75548;SDS011;64133;56.002;37.208;2023-09-12T13:46:51;17.12;;;5.37;;
75548;SDS011;64133;56.002;37.208;2023-09-12T13:51:56;13.43;;;5.90;;
75548;SDS011;64133;56.002;37.208;2023-09-12T13:57:00;10.45;;;4.80;;
75548;SDS011;64133;56.002;37.208;2023-09-12T14:02:07;11.75;;;4.97;;
75548;SDS011;64133;56.002;37.208;2023-09-12T14:07:12;13.13;;;5.20;;
75548;SDS011;64133;56.002;37.208;2023-09-12T14:12:16;9.28;;;5.22;;
75548;SDS011;64133;56.002;37.208;2023-09-12T14:17:21;9.60;;;4.70;;
75548;SDS011;64133;56.002;37.208;2023-09-12T14:22:26;11.68;;;4.83;;
75548;SDS011;64133;56.002;37.208;2023-09-12T14:27:30;10.18;;;4.67;;
75548;SDS011;64133;56.002;37.208;2023-09-12T14:32:35;17.65;;;5.50;;
75548;SDS011;64133;56.002;37.208;2023-09-12T14:37:40;9.80;;;5.62;;
75548;SDS011;64133;56.002;37.208;2023-09-12T14:42:45;10.75;;;5.85;;
75548;SDS011;64133;56.002;37.208;2023-09-12T14:47:49;8.70;;;4.83;;
75548;SDS011;64133;56.002;37.208;2023-09-12T14:52:54;9.95;;;7.12;;
75548;SDS011;64133;56.002;37.208;2023-09-12T14:57:59;8.95;;;4.72;;
75548;SDS011;64133;56.002;37.208;2023-09-12T15:03:04;8.83;;;4.90;;
75548;SDS011;64133;56.002;37.208;2023-09-12T15:08:08;15.90;;;5.20;;
75548;SDS011;64133;56.002;37.208;2023-09-12T15:13:13;9.68;;;5.28;;
75548;SDS011;64133;56.002;37.208;2023-09-12T15:18:18;10.20;;;5.35;;
75548;SDS011;64133;56.002;37.208;2023-09-12T15:23:22;12.00;;;5.40;;
75548;SDS011;64133;56.002;37.208;2023-09-12T15:28:27;9.65;;;4.83;;
75548;SDS011;64133;56.002;37.208;2023-09-12T15:33:32;14.28;;;5.53;;
75548;SDS011;64133;56.002;37.208;2023-09-12T15:38:36;9.50;;;5.47;;
75548;SDS011;64133;56.002;37.208;2023-09-12T15:43:41;13.13;;;4.83;;
75548;SDS011;64133;56.002;37.208;2023-09-12T15:48:46;9.63;;;5.28;;
75548;SDS011;64133;56.002;37.208;2023-09-12T15:53:51;9.98;;;5.05;;
75548;SDS011;64133;56.002;37.208;2023-09-12T15:58:55;9.78;;;5.00;;
75548;SDS011;64133;56.002;37.208;2023-09-12T16:04:00;9.63;;;5.60;;
75548;SDS011;64133;56.002;37.208;2023-09-12T16:09:05;13.35;;;6.97;;
75548;SDS011;64133;56.002;37.208;2023-09-12T16:14:10;19.35;;;7.97;;
75548;SDS011;64133;56.002;37.208;2023-09-12T16:19:14;18.90;;;9.68;;
75548;SDS011;64133;56.002;37.208;2023-09-12T16:24:19;18.48;;;9.83;;
75548;SDS011;64133;56.002;37.208;2023-09-12T16:29:23;32.60;;;11.33;;
75548;SDS011;64133;56.002;37.208;2023-09-12T16:34:28;41.05;;;19.52;;
75548;SDS011;64133;56.002;37.208;2023-09-12T16:39:33;24.25;;;11.20;;
75548;SDS011;64133;56.002;37.208;2023-09-12T16:44:38;18.10;;;8.40;;
75548;SDS011;64133;56.002;37.208;2023-09-12T16:49:45;28.27;;;12.35;;
75548;SDS011;64133;56.002;37.208;2023-09-12T16:54:49;25.97;;;12.40;;
75548;SDS011;64133;56.002;37.208;2023-09-12T16:59:56;19.48;;;8.93;;
75548;SDS011;64133;56.002;37.208;2023-09-12T17:05:03;21.20;;;9.15;;
75548;SDS011;64133;56.002;37.208;2023-09-12T17:10:12;36.58;;;16.82;;
75548;SDS011;64133;56.002;37.208;2023-09-12T17:15:17;27.37;;;13.10;;
75548;SDS011;64133;56.002;37.208;2023-09-12T17:20:22;30.27;;;14.65;;
75548;SDS011;64133;56.002;37.208;2023-09-12T17:25:26;24.10;;;13.13;;
75548;SDS011;64133;56.002;37.208;2023-09-12T17:30:31;19.82;;;9.48;;
75548;SDS011;64133;56.002;37.208;2023-09-12T17:35:36;24.57;;;11.95;;
75548;SDS011;64133;56.002;37.208;2023-09-12T17:40:41;31.70;;;12.43;;
75548;SDS011;64133;56.002;37.208;2023-09-12T17:45:45;16.00;;;7.42;;
75548;SDS011;64133;56.002;37.208;2023-09-12T17:50:51;17.30;;;7.42;;
75548;SDS011;64133;56.002;37.208;2023-09-12T17:55:55;22.25;;;7.83;;
75548;SDS011;64133;56.002;37.208;2023-09-12T18:01:01;19.00;;;7.58;;
75548;SDS011;64133;56.002;37.208;2023-09-12T18:06:05;25.60;;;9.43;;
75548;SDS011;64133;56.002;37.208;2023-09-12T18:11:10;22.90;;;8.70;;
75548;SDS011;64133;56.002;37.208;2023-09-12T18:16:15;19.45;;;9.50;;
75548;SDS011;64133;56.002;37.208;2023-09-12T18:21:19;20.37;;;10.38;;
75548;SDS011;64133;56.002;37.208;2023-09-12T18:26:24;26.55;;;11.57;;
75548;SDS011;64133;56.002;37.208;2023-09-12T18:31:28;18.42;;;9.93;;
75548;SDS011;64133;56.002;37.208;2023-09-12T18:36:33;14.90;;;8.30;;
75548;SDS011;64133;56.002;37.208;2023-09-12T18:41:38;22.45;;;9.20;;
75548;SDS011;64133;56.002;37.208;2023-09-12T18:46:42;16.93;;;7.47;;
75548;SDS011;64133;56.002;37.208;2023-09-12T18:51:47;14.80;;;7.00;;
75548;SDS011;64133;56.002;37.208;2023-09-12T18:56:52;14.53;;;6.78;;
75548;SDS011;64133;56.002;37.208;2023-09-12T19:01:56;14.68;;;6.67;;
75548;SDS011;64133;56.002;37.208;2023-09-12T19:07:01;15.75;;;7.87;;
75548;SDS011;64133;56.002;37.208;2023-09-12T19:12:06;17.52;;;8.15;;
75548;SDS011;64133;56.002;37.208;2023-09-12T19:17:11;13.05;;;7.53;;
75548;SDS011;64133;56.002;37.208;2023-09-12T19:22:16;17.75;;;9.58;;
75548;SDS011;64133;56.002;37.208;2023-09-12T19:27:20;16.15;;;7.00;;
75548;SDS011;64133;56.002;37.208;2023-09-12T19:32:25;14.60;;;8.15;;
75548;SDS011;64133;56.002;37.208;2023-09-12T19:37:30;17.45;;;7.37;;
75548;SDS011;64133;56.002;37.208;2023-09-12T19:42:35;13.75;;;5.83;;
75548;SDS011;64133;56.002;37.208;2023-09-12T19:47:39;13.40;;;6.62;;
75548;SDS011;64133;56.002;37.208;2023-09-12T19:52:44;15.65;;;7.20;;
75548;SDS011;64133;56.002;37.208;2023-09-12T19:57:49;13.68;;;7.60;;
75548;SDS011;64133;56.002;37.208;2023-09-12T20:02:54;16.77;;;6.25;;
75548;SDS011;64133;56.002;37.208;2023-09-12T20:07:58;16.67;;;7.62;;
75548;SDS011;64133;56.002;37.208;2023-09-12T20:13:03;13.03;;;6.45;;
75548;SDS011;64133;56.002;37.208;2023-09-12T20:18:08;16.30;;;7.12;;
75548;SDS011;64133;56.002;37.208;2023-09-12T20:23:12;12.55;;;6.78;;
75548;SDS011;64133;56.002;37.208;2023-09-12T20:28:17;14.07;;;6.35;;
75548;SDS011;64133;56.002;37.208;2023-09-12T20:33:22;13.58;;;6.33;;
75548;SDS011;64133;56.002;37.208;2023-09-12T20:38:26;15.32;;;6.75;;
75548;SDS011;64133;56.002;37.208;2023-09-12T20:43:31;16.17;;;6.83;;
75548;SDS011;64133;56.002;37.208;2023-09-12T20:48:36;13.83;;;8.15;;
75548;SDS011;64133;56.002;37.208;2023-09-12T20:53:40;20.52;;;7.67;;
75548;SDS011;64133;56.002;37.208;2023-09-12T20:58:45;14.18;;;6.90;;
75548;SDS011;64133;56.002;37.208;2023-09-12T21:03:50;19.07;;;7.60;;
75548;SDS011;64133;56.002;37.208;2023-09-12T21:08:54;15.28;;;7.08;;
75548;SDS011;64133;56.002;37.208;2023-09-12T21:13:59;12.35;;;6.75;;
75548;SDS011;64133;56.002;37.208;2023-09-12T21:19:03;15.08;;;6.67;;
75548;SDS011;64133;56.002;37.208;2023-09-12T21:24:08;13.80;;;6.85;;
75548;SDS011;64133;56.002;37.208;2023-09-12T21:29:13;14.03;;;5.75;;
75548;SDS011;64133;56.002;37.208;2023-09-12T21:34:17;14.95;;;7.17;;
75548;SDS011;64133;56.002;37.208;2023-09-12T21:39:22;15.25;;;7.15;;
75548;SDS011;64133;56.002;37.208;2023-09-12T21:44:27;9.05;;;5.97;;
75548;SDS011;64133;56.002;37.208;2023-09-12T21:49:31;15.63;;;7.10;;
75548;SDS011;64133;56.002;37.208;2023-09-12T21:54:36;16.57;;;7.28;;
75548;SDS011;64133;56.002;37.208;2023-09-12T21:59:41;25.43;;;7.60;;
75548;SDS011;64133;56.002;37.208;2023-09-12T22:04:45;16.67;;;6.83;;
75548;SDS011;64133;56.002;37.208;2023-09-12T22:09:50;17.48;;;7.25;;
75548;SDS011;64133;56.002;37.208;2023-09-12T22:14:54;12.80;;;6.72;;
75548;SDS011;64133;56.002;37.208;2023-09-12T22:20:00;13.10;;;6.83;;
75548;SDS011;64133;56.002;37.208;2023-09-12T22:25:05;12.50;;;7.00;;
75548;SDS011;64133;56.002;37.208;2023-09-12T22:30:10;12.15;;;6.58;;
75548;SDS011;64133;56.002;37.208;2023-09-12T22:35:15;19.05;;;7.92;;
75548;SDS011;64133;56.002;37.208;2023-09-12T22:40:19;13.05;;;6.53;;
75548;SDS011;64133;56.002;37.208;2023-09-12T22:45:24;20.23;;;8.00;;
75548;SDS011;64133;56.002;37.208;2023-09-12T22:50:29;13.05;;;7.03;;
75548;SDS011;64133;56.002;37.208;2023-09-12T22:55:33;15.88;;;6.70;;
75548;SDS011;64133;56.002;37.208;2023-09-12T23:00:41;21.62;;;8.15;;
75548;SDS011;64133;56.002;37.208;2023-09-12T23:05:45;13.18;;;6.17;;
75548;SDS011;64133;56.002;37.208;2023-09-12T23:10:50;13.80;;;6.42;;
75548;SDS011;64133;56.002;37.208;2023-09-12T23:15:54;13.72;;;6.50;;
75548;SDS011;64133;56.002;37.208;2023-09-12T23:20:59;17.10;;;8.13;;
75548;SDS011;64133;56.002;37.208;2023-09-12T23:26:04;14.68;;;7.78;;
75548;SDS011;64133;56.002;37.208;2023-09-12T23:31:09;12.45;;;6.28;;
75548;SDS011;64133;56.002;37.208;2023-09-12T23:36:13;10.13;;;5.42;;
75548;SDS011;64133;56.002;37.208;2023-09-12T23:41:18;12.00;;;7.05;;
75548;SDS011;64133;56.002;37.208;2023-09-12T23:46:22;11.57;;;6.55;;
75548;SDS011;64133;56.002;37.208;2023-09-12T23:51:27;15.18;;;6.67;;
75548;SDS011;64133;56.002;37.208;2023-09-12T23:56:32;17.98;;;7.42;;
